Time;durP1;ratioP1;P1;durP2;ratioP2;P2;SDS_P1;SDS_P2;PMS_P1;PMS_P2;Temp;Humidity;BMP_temperature;BMP_pressure;BME280_temperature;BME280_humidity;BME280_pressure;Samples;Min_cycle;Max_cycle;Signal;HPM_P1;HPM_P2
2022/10/19 00:02:25;;;;;;;8.97;1.77;;;;;;;;;;5076686;28;20747;-68
2022/10/19 00:04:51;;;;;;;7.87;1.53;;;;;;;;;;5076367;28;20366;-68
2022/10/19 00:07:17;;;;;;;8.20;2.33;;;;;;;;;;5042543;28;20287;-68
2022/10/19 00:09:44;;;;;;;14.10;1.70;;;;;;;;;;5076327;28;20281;-69
2022/10/19 00:12:12;;;;;;;11.33;1.67;;;;;;;;;;5076307;28;20317;-68
2022/10/19 00:14:38;;;;;;;12.47;1.87;;;;;;;;;;5076152;28;20282;-68
2022/10/19 00:17:04;;;;;;;9.53;2.37;;;;;;;;;;5076631;28;20286;-68
2022/10/19 00:19:30;;;;;;;8.27;1.90;;;;;;;;;;5076031;28;20317;-68
2022/10/19 00:21:56;;;;;;;7.07;1.67;;;;;;;;;;5076224;28;20283;-68
2022/10/19 00:24:22;;;;;;;11.60;2.30;;;;;;;;;;5076018;28;20353;-68
2022/10/19 00:26:48;;;;;;;12.17;1.83;;;;;;;;;;5075853;28;20333;-68
2022/10/19 00:29:15;;;;;;;11.20;1.57;;;;;;;;;;5076346;28;20324;-68
2022/10/19 00:31:41;;;;;;;6.23;1.77;;;;;;;;;;5076325;28;20283;-68
2022/10/19 00:34:07;;;;;;;8.77;1.63;;;;;;;;;;5076060;28;20394;-68
2022/10/19 00:36:34;;;;;;;9.17;1.97;;;;;;;;;;5075525;28;20754;-68
2022/10/19 00:39:01;;;;;;;10.00;1.70;;;;;;;;;;5075565;28;20297;-68
2022/10/19 00:41:28;;;;;;;6.37;1.63;;;;;;;;;;5075961;28;20274;-68
2022/10/19 00:43:57;;;;;;;8.97;1.67;;;;;;;;;;5075852;28;20282;-68
2022/10/19 00:46:23;;;;;;;8.17;1.33;;;;;;;;;;5075559;28;20290;-68
2022/10/19 00:48:52;;;;;;;5.67;1.50;;;;;;;;;;5075507;28;20275;-68
2022/10/19 00:51:18;;;;;;;8.83;1.63;;;;;;;;;;5058653;28;20319;-68
2022/10/19 00:53:44;;;;;;;10.47;1.50;;;;;;;;;;5075969;28;20588;-68
2022/10/19 00:56:12;;;;;;;6.33;1.80;;;;;;;;;;5075973;28;20283;-68
2022/10/19 00:58:40;;;;;;;7.87;1.70;;;;;;;;;;5075257;28;20398;-68
2022/10/19 01:01:08;;;;;;;13.87;1.97;;;;;;;;;;5075228;28;20362;-68
2022/10/19 01:03:34;;;;;;;4.40;1.53;;;;;;;;;;5075274;28;20325;-68
2022/10/19 01:06:01;;;;;;;10.00;1.80;;;;;;;;;;5075226;28;20314;-68
2022/10/19 01:08:27;;;;;;;9.93;1.80;;;;;;;;;;5075246;28;20311;-68
2022/10/19 01:11:05;;;;;;;11.37;2.13;;;;;;;;;;5074972;28;20354;-68
2022/10/19 01:13:41;;;;;;;12.43;1.93;;;;;;;;;;5075142;28;20751;-68
2022/10/19 01:16:26;;;;;;;8.03;1.80;;;;;;;;;;5075024;28;20287;-68
2022/10/19 01:18:57;;;;;;;7.20;1.45;;;;;;;;;;5074875;28;20306;-69
2022/10/19 01:21:49;;;;;;;5.23;1.90;;;;;;;;;;5074925;28;20477;-68
2022/10/19 01:24:34;;;;;;;5.33;1.50;;;;;;;;;;5070844;28;20751;-68
2022/10/19 01:27:19;;;;;;;9.63;1.63;;;;;;;;;;5074705;28;20635;-68
2022/10/19 01:30:03;;;;;;;7.20;1.50;;;;;;;;;;5074756;28;20306;-68
2022/10/19 01:32:37;;;;;;;8.43;1.80;;;;;;;;;;5074570;28;20056;-68
2022/10/19 01:35:03;;;;;;;9.52;1.92;;;;;;;;;;5074422;28;20714;-68
2022/10/19 01:37:41;;;;;;;8.10;1.93;;;;;;;;;;5057567;28;20048;-68
2022/10/19 01:40:07;;;;;;;5.13;1.63;;;;;;;;;;5074365;28;20299;-68
2022/10/19 01:42:50;;;;;;;7.47;1.90;;;;;;;;;;5073744;28;20758;-68
2022/10/19 01:45:19;;;;;;;6.13;1.30;;;;;;;;;;5075205;28;20278;-68
2022/10/19 01:47:45;;;;;;;8.83;1.87;;;;;;;;;;5040080;28;20295;-68
2022/10/19 01:50:15;;;;;;;7.97;1.63;;;;;;;;;;5056699;28;20455;-68
2022/10/19 01:52:42;;;;;;;7.80;1.70;;;;;;;;;;5075080;28;20286;-68
2022/10/19 01:55:10;;;;;;;6.40;1.57;;;;;;;;;;5074950;28;20278;-68
2022/10/19 01:57:38;;;;;;;11.77;1.73;;;;;;;;;;5074128;28;20290;-68
2022/10/19 02:00:06;;;;;;;8.33;1.70;;;;;;;;;;5073978;28;20782;-68
2022/10/19 02:02:34;;;;;;;11.63;1.50;;;;;;;;;;5074118;28;20687;-68
2022/10/19 02:05:00;;;;;;;8.47;1.70;;;;;;;;;;5074564;28;20311;-68
2022/10/19 02:07:27;;;;;;;7.17;1.87;;;;;;;;;;5074563;28;20324;-68
2022/10/19 02:09:53;;;;;;;8.80;1.67;;;;;;;;;;5073974;28;20317;-68
2022/10/19 02:12:20;;;;;;;7.93;1.70;;;;;;;;;;5056277;28;20839;-68
2022/10/19 02:14:48;;;;;;;9.20;1.93;;;;;;;;;;5073879;28;20335;-68
2022/10/19 02:17:16;;;;;;;7.30;1.57;;;;;;;;;;5073776;28;20365;-68
2022/10/19 02:19:42;;;;;;;8.47;2.00;;;;;;;;;;5073774;28;20416;-68
2022/10/19 02:22:09;;;;;;;10.60;1.83;;;;;;;;;;5056955;28;20283;-68
2022/10/19 02:24:35;;;;;;;8.40;1.60;;;;;;;;;;5073779;28;20274;-68
2022/10/19 02:27:03;;;;;;;8.33;1.73;;;;;;;;;;5073723;28;20690;-68
2022/10/19 02:29:30;;;;;;;9.23;1.60;;;;;;;;;;5073674;28;20359;-68
2022/10/19 02:31:56;;;;;;;11.63;2.20;;;;;;;;;;5074161;28;20289;-68
2022/10/19 02:34:22;;;;;;;10.23;1.40;;;;;;;;;;5073447;28;20294;-68
2022/10/19 02:36:48;;;;;;;9.43;1.93;;;;;;;;;;5074091;28;20618;-68
2022/10/19 02:39:14;;;;;;;10.67;2.20;;;;;;;;;;5073415;28;20406;-68
2022/10/19 02:41:43;;;;;;;9.30;2.13;;;;;;;;;;5073511;28;20275;-68
2022/10/19 02:44:14;;;;;;;7.93;1.60;;;;;;;;;;5073171;28;20783;-68
2022/10/19 02:46:43;;;;;;;10.53;2.43;;;;;;;;;;5074009;28;20324;-68
2022/10/19 02:49:09;;;;;;;9.90;1.70;;;;;;;;;;5073687;28;20306;-68
2022/10/19 02:51:37;;;;;;;9.17;1.90;;;;;;;;;;5073956;28;20318;-68
2022/10/19 02:54:04;;;;;;;6.83;1.60;;;;;;;;;;5073324;28;20282;-69
2022/10/19 02:56:30;;;;;;;8.60;2.07;;;;;;;;;;5073601;28;20343;-68
2022/10/19 02:58:56;;;;;;;9.97;1.70;;;;;;;;;;5073185;28;20294;-68
2022/10/19 03:01:22;;;;;;;11.23;2.23;;;;;;;;;;5073350;28;20271;-68
2022/10/19 03:03:48;;;;;;;7.87;1.50;;;;;;;;;;5073292;28;20279;-68
2022/10/19 03:06:14;;;;;;;9.07;1.77;;;;;;;;;;5073264;28;20310;-68
2022/10/19 03:08:40;;;;;;;5.83;1.33;;;;;;;;;;5073258;28;20302;-68
2022/10/19 03:11:06;;;;;;;11.20;1.47;;;;;;;;;;5073101;28;20279;-68
2022/10/19 03:13:33;;;;;;;9.87;1.50;;;;;;;;;;5056307;28;20762;-68
2022/10/19 03:16:05;;;;;;;14.30;1.87;;;;;;;;;;5072919;28;20763;-68
2022/10/19 03:18:31;;;;;;;10.10;1.77;;;;;;;;;;5056266;28;20318;-68
2022/10/19 03:21:04;;;;;;;9.13;1.60;;;;;;;;;;5073896;28;20340;-68
2022/10/19 03:23:30;;;;;;;8.63;1.73;;;;;;;;;;5073152;28;20279;-68
2022/10/19 03:25:56;;;;;;;11.80;2.00;;;;;;;;;;5056227;28;20286;-68
2022/10/19 03:28:22;;;;;;;7.93;1.67;;;;;;;;;;5073412;28;20317;-68
2022/10/19 03:30:48;;;;;;;17.70;2.03;;;;;;;;;;5072992;28;20336;-68
2022/10/19 03:33:14;;;;;;;8.67;2.00;;;;;;;;;;5072970;28;20278;-68
2022/10/19 03:35:40;;;;;;;7.27;1.50;;;;;;;;;;5072788;28;20287;-68
2022/10/19 03:38:06;;;;;;;12.30;2.20;;;;;;;;;;5072992;28;20286;-68
2022/10/19 03:40:32;;;;;;;6.80;1.30;;;;;;;;;;5073325;28;20321;-68
2022/10/19 03:42:58;;;;;;;7.23;1.50;;;;;;;;;;5072868;28;20704;-68
2022/10/19 03:45:24;;;;;;;13.43;1.80;;;;;;;;;;5073385;28;20676;-68
2022/10/19 03:47:51;;;;;;;10.23;2.10;;;;;;;;;;5072860;28;20742;-68
2022/10/19 03:50:17;;;;;;;9.23;1.87;;;;;;;;;;5072903;28;20279;-68
2022/10/19 03:52:44;;;;;;;8.93;2.07;;;;;;;;;;5055108;28;20813;-68
2022/10/19 03:55:10;;;;;;;9.40;1.70;;;;;;;;;;5072711;28;20279;-68
2022/10/19 03:57:37;;;;;;;13.07;1.63;;;;;;;;;;5073293;28;20307;-68
2022/10/19 04:00:04;;;;;;;7.97;1.67;;;;;;;;;;5073442;28;20295;-68
2022/10/19 04:02:30;;;;;;;10.17;1.60;;;;;;;;;;5072387;28;20279;-68
2022/10/19 04:04:56;;;;;;;13.90;1.73;;;;;;;;;;5055104;28;20282;-68
2022/10/19 04:07:22;;;;;;;9.37;2.03;;;;;;;;;;5076350;28;20286;-68
2022/10/19 04:09:48;;;;;;;7.67;1.70;;;;;;;;;;5076814;28;20306;-68
2022/10/19 04:12:14;;;;;;;9.13;1.60;;;;;;;;;;5076796;28;20677;-68
2022/10/19 04:14:41;;;;;;;9.53;1.70;;;;;;;;;;5076070;28;20279;-68
2022/10/19 04:17:07;;;;;;;8.07;1.80;;;;;;;;;;5076097;28;20374;-68
2022/10/19 04:19:33;;;;;;;9.67;1.47;;;;;;;;;;5057929;28;20302;-68
2022/10/19 04:21:59;;;;;;;9.60;1.87;;;;;;;;;;5075961;28;20275;-68
2022/10/19 04:24:25;;;;;;;9.17;2.20;;;;;;;;;;5075922;28;20275;-68
2022/10/19 04:26:53;;;;;;;10.07;1.50;;;;;;;;;;5075866;28;20706;-68
2022/10/19 04:29:20;;;;;;;9.53;1.73;;;;;;;;;;5075870;28;20798;-68
2022/10/19 04:31:48;;;;;;;9.60;2.20;;;;;;;;;;5075806;28;20612;-68
2022/10/19 04:34:14;;;;;;;8.90;1.53;;;;;;;;;;5057991;28;20286;-70
2022/10/19 04:36:40;;;;;;;9.67;2.10;;;;;;;;;;5076034;28;20271;-68
2022/10/19 04:39:06;;;;;;;15.23;2.73;;;;;;;;;;5076126;28;20605;-68
2022/10/19 04:41:33;;;;;;;13.27;2.63;;;;;;;;;;5057781;28;20270;-68
2022/10/19 04:44:00;;;;;;;12.07;1.93;;;;;;;;;;5075634;28;20282;-68
2022/10/19 04:46:27;;;;;;;12.43;1.93;;;;;;;;;;5076013;28;20370;-68
2022/10/19 04:48:53;;;;;;;15.27;2.40;;;;;;;;;;5076235;28;20278;-68
2022/10/19 04:51:20;;;;;;;10.70;2.30;;;;;;;;;;5075335;28;20362;-68
2022/10/19 04:53:46;;;;;;;9.83;1.80;;;;;;;;;;5075311;28;20764;-68
2022/10/19 04:56:17;;;;;;;7.90;1.70;;;;;;;;;;5057678;28;20770;-68
2022/10/19 04:58:43;;;;;;;13.77;2.33;;;;;;;;;;5057527;28;20809;-68
2022/10/19 05:01:13;;;;;;;15.70;2.50;;;;;;;;;;5075436;28;20754;-68
2022/10/19 05:03:39;;;;;;;13.07;3.20;;;;;;;;;;5075507;28;20639;-68
2022/10/19 05:06:06;;;;;;;17.00;2.60;;;;;;;;;;5075198;28;20377;-68
2022/10/19 05:08:32;;;;;;;14.27;2.20;;;;;;;;;;5075288;28;20412;-68
2022/10/19 05:11:02;;;;;;;10.50;2.40;;;;;;;;;;5075067;28;20814;-68
2022/10/19 05:13:28;;;;;;;12.03;2.60;;;;;;;;;;5074929;28;20283;-68
2022/10/19 05:15:55;;;;;;;11.63;2.20;;;;;;;;;;5074911;28;20285;-68
2022/10/19 05:18:21;;;;;;;11.07;2.03;;;;;;;;;;5074329;28;20279;-68
2022/10/19 05:20:47;;;;;;;9.40;2.37;;;;;;;;;;5074760;28;20366;-68
2022/10/19 05:23:13;;;;;;;17.53;3.03;;;;;;;;;;5057921;28;20291;-68
2022/10/19 05:25:39;;;;;;;13.13;2.50;;;;;;;;;;5074759;28;20275;-68
2022/10/19 05:28:06;;;;;;;10.90;1.80;;;;;;;;;;5075000;28;20283;-68
2022/10/19 05:30:32;;;;;;;11.80;2.27;;;;;;;;;;5074684;28;20271;-68
2022/10/19 05:32:58;;;;;;;12.70;2.27;;;;;;;;;;5074551;28;20283;-68
2022/10/19 05:35:24;;;;;;;14.63;2.00;;;;;;;;;;5057096;28;20294;-68
2022/10/19 05:37:54;;;;;;;10.50;2.13;;;;;;;;;;5074857;28;20645;-68
2022/10/19 05:40:20;;;;;;;11.47;2.00;;;;;;;;;;5057121;28;20302;-71
2022/10/19 05:42:46;;;;;;;8.83;1.80;;;;;;;;;;5074414;28;20274;-68
2022/10/19 05:45:12;;;;;;;13.83;2.63;;;;;;;;;;5074369;28;20278;-68
2022/10/19 05:47:39;;;;;;;9.30;2.50;;;;;;;;;;5056590;28;20290;-68
2022/10/19 05:50:05;;;;;;;12.23;2.03;;;;;;;;;;5074256;28;20434;-68
2022/10/19 05:52:31;;;;;;;13.53;2.13;;;;;;;;;;5074174;28;20311;-68
2022/10/19 05:54:57;;;;;;;13.07;2.30;;;;;;;;;;5074076;28;20282;-68
2022/10/19 05:57:24;;;;;;;10.07;2.13;;;;;;;;;;5073953;28;20336;-69
2022/10/19 05:59:50;;;;;;;10.23;1.93;;;;;;;;;;5073996;28;20647;-68
2022/10/19 06:02:16;;;;;;;15.57;2.90;;;;;;;;;;5074303;28;20340;-68
2022/10/19 06:04:42;;;;;;;18.33;2.73;;;;;;;;;;5073865;28;20313;-68
2022/10/19 06:07:09;;;;;;;9.77;2.37;;;;;;;;;;5074723;28;20365;-68
2022/10/19 06:09:36;;;;;;;12.47;1.93;;;;;;;;;;5073848;28;20281;-68
2022/10/19 06:12:02;;;;;;;14.60;2.27;;;;;;;;;;5073895;28;20290;-68
2022/10/19 06:14:28;;;;;;;10.90;2.20;;;;;;;;;;5073807;28;20279;-68
2022/10/19 06:16:54;;;;;;;7.47;2.00;;;;;;;;;;5074156;28;20678;-68
2022/10/19 06:19:20;;;;;;;10.30;3.03;;;;;;;;;;5074064;28;20305;-67
2022/10/19 06:21:46;;;;;;;19.40;4.50;;;;;;;;;;5073887;28;20295;-68
2022/10/19 06:24:13;;;;;;;16.20;3.17;;;;;;;;;;5073639;28;20344;-68
2022/10/19 06:26:39;;;;;;;17.57;3.60;;;;;;;;;;5073819;28;20670;-68
2022/10/19 06:29:05;;;;;;;17.13;2.30;;;;;;;;;;5073273;28;20301;-68
2022/10/19 06:31:32;;;;;;;15.17;3.00;;;;;;;;;;5073517;28;20336;-68
2022/10/19 06:33:59;;;;;;;15.07;2.93;;;;;;;;;;5073470;28;20748;-68
2022/10/19 06:36:26;;;;;;;10.90;2.43;;;;;;;;;;5073677;28;20286;-68
2022/10/19 06:38:52;;;;;;;13.70;2.30;;;;;;;;;;5073292;28;20306;-68
2022/10/19 06:41:19;;;;;;;17.53;2.90;;;;;;;;;;5073675;28;20278;-68
2022/10/19 06:43:49;;;;;;;13.67;2.90;;;;;;;;;;5073365;28;20587;-68
2022/10/19 06:46:19;;;;;;;12.37;3.13;;;;;;;;;;5073268;28;20360;-68
2022/10/19 06:49:05;;;;;;;13.40;2.50;;;;;;;;;;5055612;28;20426;-68
2022/10/19 06:51:33;;;;;;;10.47;2.30;;;;;;;;;;5073314;28;20349;-68
2022/10/19 06:53:59;;;;;;;12.70;2.43;;;;;;;;;;5073277;28;20275;-68
2022/10/19 06:56:26;;;;;;;12.30;2.07;;;;;;;;;;5073197;28;20285;-68
2022/10/19 06:58:52;;;;;;;15.63;2.87;;;;;;;;;;5073035;28;20835;-68
2022/10/19 07:01:18;;;;;;;15.10;2.87;;;;;;;;;;5073108;28;20313;-68
2022/10/19 07:03:44;;;;;;;12.03;2.27;;;;;;;;;;5055271;28;20764;-68
2022/10/19 07:06:12;;;;;;;13.57;2.60;;;;;;;;;;5073251;28;20283;-68
2022/10/19 07:08:39;;;;;;;10.93;2.33;;;;;;;;;;5055459;28;20294;-68
2022/10/19 07:11:06;;;;;;;13.10;2.20;;;;;;;;;;5073736;28;20335;-68
2022/10/19 07:13:33;;;;;;;11.83;2.97;;;11.30;99.90;;;;;;5073189;28;20271;-69
2022/10/19 07:16:05;;;;;;;12.37;2.03;;;11.30;99.90;;;;;;5073924;28;20279;-68
2022/10/19 07:18:35;;;;;;;7.93;1.97;;;11.30;99.90;;;;;;5072972;28;20283;-68
2022/10/19 07:21:03;;;;;;;13.80;2.20;;;11.40;99.90;;;;;;5055728;28;20291;-68
2022/10/19 07:23:33;;;;;;;20.10;2.80;;;11.50;99.90;;;;;;5073098;28;20279;-68
2022/10/19 07:26:22;;;;;;;8.90;2.37;;;11.50;99.90;;;;;;5072758;28;20766;-68
2022/10/19 07:28:49;;;;;;;11.03;2.20;;;11.50;99.90;;;;;;5073305;28;20294;-68
2022/10/19 07:31:17;;;;;;;11.87;1.90;;;11.60;99.90;;;;;;5073296;28;20278;-68
2022/10/19 07:33:43;;;;;;;10.90;1.70;;;11.60;99.90;;;;;;5073033;28;20290;-68
2022/10/19 07:36:10;;;;;;;8.37;1.90;;;11.60;99.90;;;;;;5072912;28;20294;-68
2022/10/19 07:38:36;;;;;;;10.67;2.07;;;11.70;99.90;;;;;;5072883;28;20341;-68
2022/10/19 07:41:06;;;;;;;12.10;2.03;;;11.70;99.90;;;;;;5074882;28;20274;-68
2022/10/19 07:43:33;;;;;;;13.37;2.17;;;11.70;99.90;;;;;;5076828;28;20282;-68
2022/10/19 07:46:04;;;;;;;14.17;2.27;;;11.70;99.90;;;;;;5076740;28;20290;-68
2022/10/19 07:48:30;;;;;;;12.77;1.90;;;11.80;99.90;;;;;;5059697;28;20631;-68
2022/10/19 07:50:57;;;;;;;13.50;3.03;;;11.80;99.90;;;;;;5076744;28;20290;-73
2022/10/19 07:53:23;;;;;;;10.00;1.80;;;11.80;99.90;;;;;;5059183;28;20290;-71
2022/10/19 07:55:48;;;;;;;10.30;2.20;;;11.80;99.90;;;;;;5076450;28;20279;-73
2022/10/19 07:58:14;;;;;;;11.20;1.90;;;11.90;99.90;;;;;;5058865;28;20072;-72
2022/10/19 08:00:40;;;;;;;9.77;2.13;;;11.90;99.90;;;;;;5076287;28;20549;-73
2022/10/19 08:03:06;;;;;;;16.50;2.00;;;11.90;99.90;;;;;;5076324;28;20494;-72
2022/10/19 08:05:32;;;;;;;10.73;2.23;;;12.00;99.90;;;;;;5076410;28;20182;-72
2022/10/19 08:07:58;;;;;;;11.23;2.23;;;12.00;99.90;;;;;;5058717;28;20044;-72
2022/10/19 08:10:23;;;;;;;12.00;2.73;;;12.00;99.90;;;;;;5076299;28;20759;-72
2022/10/19 08:12:49;;;;;;;12.47;1.90;;;12.10;99.90;;;;;;5076591;28;20044;-73
2022/10/19 08:15:15;;;;;;;9.60;1.83;;;12.10;99.90;;;;;;5076054;28;20056;-72
2022/10/19 08:17:41;;;;;;;11.03;1.80;;;;;;;;;;5076763;28;20106;-72
2022/10/19 08:20:07;;;;;;;12.30;1.90;;;;;;;;;;5076070;28;20052;-72
2022/10/19 08:22:33;;;;;;;13.33;2.23;;;12.30;99.90;;;;;;5076654;28;20279;-72
2022/10/19 08:24:59;;;;;;;13.47;2.53;;;12.40;99.90;;;;;;5076779;28;20281;-72
2022/10/19 08:27:25;;;;;;;13.40;2.17;;;12.40;99.90;;;;;;5076065;28;20477;-72
2022/10/19 08:29:51;;;;;;;14.57;2.40;;;12.40;99.90;;;;;;5076027;28;20105;-72
2022/10/19 08:32:17;;;;;;;13.17;2.13;;;12.50;99.90;;;;;;5058342;28;20283;-72
2022/10/19 08:34:43;;;;;;;14.00;2.23;;;12.50;99.90;;;;;;5075891;28;20044;-72
2022/10/19 08:37:09;;;;;;;12.20;2.20;;;12.50;99.90;;;;;;5041981;28;20295;-72
2022/10/19 08:39:35;;;;;;;8.47;1.40;;;12.60;99.90;;;;;;5037990;28;20325;-71
2022/10/19 08:42:22;;;;;;;7.90;1.67;;;12.50;99.90;;;;;;5055769;28;20052;-72
2022/10/19 08:45:18;;;;;;;11.00;2.00;;;12.50;99.90;;;;;;5038996;28;20139;-71
2022/10/19 08:48:00;;;;;;;10.40;1.60;;;12.60;99.90;;;;;;5021751;28;20302;-71
2022/10/19 08:50:33;;;;;;;11.17;2.97;;;12.60;99.90;;;;;;5038011;28;20845;-71
2022/10/19 08:53:14;;;;;;;10.60;2.77;;;12.60;99.90;;;;;;5038072;28;20374;-71
2022/10/19 08:56:17;;;;;;;13.00;1.93;;;12.70;99.90;;;;;;5055547;28;20267;-71
2022/10/19 08:58:59;;;;;;;12.43;2.30;;;12.70;99.90;;;;;;5054987;28;20793;-81
2022/10/19 09:02:00;;;;;;;10.77;2.20;;;12.70;99.90;;;;;;5055535;28;20315;-71
2022/10/19 09:04:41;;;;;;;11.37;2.73;;;12.80;99.90;;;;;;4954927;29;20298;-73
2022/10/19 09:07:15;;;;;;;10.33;1.87;;;12.80;99.90;;;;;;5045384;28;20286;-73
2022/10/19 09:09:47;;;;;;;13.07;2.60;;;12.80;99.90;;;;;;5055275;28;20275;-73
2022/10/19 09:12:20;;;;;;;10.63;1.90;;;12.90;99.90;;;;;;5055760;28;20124;-73
2022/10/19 09:14:59;;;;;;;12.27;1.80;;;12.90;99.90;;;;;;5037922;28;20358;-71
2022/10/19 09:17:25;;;;;;;16.00;2.30;;;12.90;99.90;;;;;;5055109;28;20284;-72
2022/10/19 09:19:51;;;;;;;15.53;3.47;;;12.90;99.90;;;;;;5054972;28;20295;-71
2022/10/19 09:22:25;;;;;;;12.30;1.97;;;12.90;99.90;;;;;;5055018;28;20290;-72
2022/10/19 09:24:53;;;;;;;10.85;2.33;;;12.90;99.90;;;;;;5054997;28;20325;-74
2022/10/19 09:27:24;;;;;;;10.40;1.90;;;12.90;99.90;;;;;;5055105;28;20543;-72
2022/10/19 09:29:54;;;;;;;9.30;2.53;;;12.90;99.90;;;;;;5055205;28;20271;-75
2022/10/19 09:32:33;;;;;;;9.43;2.10;;;12.90;99.90;;;;;;5037627;28;20346;-75
2022/10/19 09:35:01;;;;;;;11.13;2.47;;;12.90;99.90;;;;;;5055009;28;20286;-74
2022/10/19 09:37:28;;;;;;;10.87;1.83;;;12.90;99.90;;;;;;5073369;28;20295;-72
2022/10/19 09:39:55;;;;;;;9.13;1.80;;;12.90;99.90;;;;;;5056777;28;20310;-76
2022/10/19 09:42:25;;;;;;;10.93;1.77;;;13.00;99.90;;;;;;5075238;28;20332;-76
2022/10/19 09:44:51;;;;;;;8.90;2.30;;;;;;;;;;5074388;28;20283;-76
2022/10/19 09:47:17;;;;;;;14.03;1.80;;;;;;;;;;5075288;28;20283;-76
2022/10/19 09:49:48;;;;;;;10.93;1.70;;;;;;;;;;5057087;28;20369;-75
2022/10/19 09:52:28;;;;;;;8.20;1.90;;;;;;;;;;5075195;28;20279;-74
2022/10/19 09:55:01;;;;;;;9.40;1.80;;;;;;;;;;5074945;28;20631;-74
2022/10/19 09:57:27;;;;;;;12.30;2.33;;;;;;;;;;5074293;28;20287;-71
2022/10/19 09:59:54;;;;;;;12.83;2.80;;;;;;;;;;5074212;28;20699;-74
2022/10/19 10:02:22;;;;;;;13.77;2.47;;;;;;;;;;5074112;28;20294;-75
2022/10/19 10:04:55;;;;;;;11.47;1.97;;;;;;;;;;5073729;28;20361;-73
2022/10/19 10:07:24;;;;;;;7.70;1.93;;;;;;;;;;5056497;28;20336;-73
2022/10/19 10:09:51;;;;;;;9.87;2.03;;;;;;;;;;5056516;28;20291;-71
2022/10/19 10:12:17;;;;;;;7.47;1.90;;;;;;;;;;5074050;28;20290;-71
2022/10/19 10:14:44;;;;;;;8.73;2.80;;;;;;;;;;5073690;28;20347;-71
2022/10/19 10:17:19;;;;;;;12.53;1.97;;;;;;;;;;5073924;28;20340;-71
2022/10/19 10:19:49;;;;;;;12.43;2.03;;;;;;;;;;5073842;28;20295;-71
2022/10/19 10:22:24;;;;;;;11.80;2.50;;;;;;;;;;5073839;28;20135;-71
2022/10/19 10:24:51;;;;;;;7.72;2.53;;;;;;;;;;5074421;28;20279;-71
2022/10/19 10:27:25;;;;;;;10.13;2.17;;;;;;;;;;5074293;28;20501;-73
2022/10/19 10:29:55;;;;;;;9.47;1.80;;;;;;;;;;5073891;28;20267;-72
2022/10/19 10:32:21;;;;;;;11.70;2.13;;;;;;;;;;5073784;28;20278;-72
2022/10/19 10:34:47;;;;;;;11.80;2.30;;;;;;;;;;5073692;28;20282;-72
2022/10/19 10:37:20;;;;;;;12.50;2.40;;;;;;;;;;5073939;28;20299;-70
2022/10/19 10:39:50;;;;;;;10.20;2.07;;;;;;;;;;5073588;28;20330;-70
2022/10/19 10:42:18;;;;;;;8.33;1.87;;;;;;;;;;5055632;28;20274;-72
2022/10/19 10:44:45;;;;;;;9.63;1.70;;;;;;;;;;5073815;28;20286;-72
2022/10/19 10:47:14;;;;;;;11.60;2.00;;;;;;;;;;5073295;28;20287;-71
2022/10/19 10:49:43;;;;;;;8.70;1.73;;;;;;;;;;5073462;28;20670;-71
2022/10/19 10:52:13;;;;;;;11.40;1.97;;;;;;;;;;5039056;28;20300;-72
2022/10/19 10:54:40;;;;;;;11.43;2.13;;;;;;;;;;5074162;28;20278;-71
2022/10/19 10:57:14;;;;;;;6.33;1.53;;;;;;;;;;5055533;28;20670;-71
2022/10/19 10:59:49;;;;;;;9.82;1.65;;;;;;;;;;5073081;28;20291;-73
2022/10/19 11:02:23;;;;;;;11.98;1.90;;;;;;;;;;5073180;28;20052;-74
2022/10/19 11:04:58;;;;;;;9.10;1.92;;;;;;;;;;5073208;28;20051;-73
2022/10/19 11:07:25;;;;;;;9.50;1.70;;;;;;;;;;5055441;28;20048;-73
2022/10/19 11:09:53;;;;;;;11.37;1.87;;;;;;;;;;5073134;28;20041;-74
2022/10/19 11:12:34;;;;;;;9.40;1.77;;;13.80;99.90;;;;;;5055339;28;20290;-73
2022/10/19 11:15:24;;;;;;;9.00;1.80;;;13.80;99.90;;;;;;5073548;28;20287;-71
2022/10/19 11:17:58;;;;;;;11.97;2.33;;;13.90;99.90;;;;;;5077831;28;20271;-71
2022/10/19 11:20:29;;;;;;;11.53;1.90;;;14.00;99.90;;;;;;5059541;28;20305;-72
2022/10/19 11:23:11;;;;;;;12.40;2.00;;;14.00;99.90;;;;;;5077746;28;20098;-72
2022/10/19 11:25:56;;;;;;;10.57;1.87;;;14.00;99.90;;;;;;5077138;28;20811;-73
2022/10/19 11:28:24;;;;;;;10.38;1.85;;;14.00;99.90;;;;;;5077053;28;20278;-72
2022/10/19 11:31:08;;;;;;;7.80;1.60;;;13.90;99.90;;;;;;5077475;28;20055;-71
2022/10/19 11:34:14;;;;;;;10.97;2.33;;;13.80;99.90;;;;;;5077122;28;20282;-72
2022/10/19 11:36:44;;;;;;;;;;;13.70;99.90;;;;;;5063273;28;20298;-72
2022/10/19 11:39:34;;;;;;;12.27;2.20;;;13.60;99.90;;;;;;5076809;28;19925;-72
2022/10/19 11:42:11;;;;;;;11.30;1.97;;;13.60;99.90;;;;;;5076974;28;20278;-72
2022/10/19 11:45:10;;;;;;;9.03;1.97;;;13.50;99.90;;;;;;5077246;28;20307;-72
2022/10/19 11:47:52;;;;;;;9.37;1.93;;;13.40;99.90;;;;;;5077118;28;20279;-71
2022/10/19 11:50:55;;;;;;;11.33;2.10;;;13.40;99.90;;;;;;5077355;28;20278;-71
2022/10/19 11:53:36;;;;;;;7.83;1.47;;;13.40;99.90;;;;;;5076617;28;20287;-73
2022/10/19 11:56:27;;;;;;;12.73;1.70;;;13.40;99.90;;;;;;5076681;28;20281;-73
2022/10/19 11:58:57;;;;;;;11.13;2.00;;;13.40;99.90;;;;;;5076530;28;20279;-73
2022/10/19 12:01:37;;;;;;;9.57;2.00;;;13.40;99.90;;;;;;5076628;28;20311;-73
2022/10/19 12:04:27;;;;;;;8.90;1.97;;;13.50;99.90;;;;;;5076845;28;20353;-72
2022/10/19 12:07:07;;;;;;;7.60;1.43;;;13.60;99.90;;;;;;5076371;28;20357;-72
2022/10/19 12:09:59;;;;;;;12.03;1.97;;;13.60;99.90;;;;;;5058712;28;20724;-73
2022/10/19 12:12:34;;;;;;;8.27;1.43;;;13.80;99.90;;;;;;5076869;28;20297;-72
2022/10/19 12:15:12;;;;;;;7.95;1.50;;;13.80;99.90;;;;;;5076402;28;20274;-73
2022/10/19 12:17:42;;;;;;;11.67;2.40;;;13.70;99.90;;;;;;5059001;28;20097;-73
2022/10/19 12:20:34;;;;;;;10.00;1.83;;;13.70;99.90;;;;;;5076413;28;20851;-75
2022/10/19 12:23:20;;;;;;;10.10;2.10;;;13.60;99.90;;;;;;5059283;28;20294;-70
2022/10/19 12:25:48;;;;;;;9.23;2.13;;;13.50;99.90;;;;;;5076194;28;20282;-71
2022/10/19 12:28:23;;;;;;;7.93;2.00;;;13.50;99.90;;;;;;5076764;28;20281;-72
2022/10/19 12:30:50;;;;;;;11.13;2.20;;;13.50;99.90;;;;;;5076576;28;20271;-76
2022/10/19 12:33:26;;;;;;;13.53;2.10;;;13.50;99.90;;;;;;5075953;28;20366;-75
2022/10/19 12:36:01;;;;;;;8.70;2.30;;;13.60;99.90;;;;;;5076242;28;20275;-72
2022/10/19 12:38:45;;;;;;;;;;;13.60;99.90;;;;;;5076617;28;20366;-72
2022/10/19 12:41:43;;;;;;;10.87;2.10;;;13.60;99.90;;;;;;5076430;28;19971;-72
2022/10/19 12:44:27;;;;;;;10.10;1.73;;;13.70;99.90;;;;;;5076326;28;20769;-71
2022/10/19 12:47:17;;;;;;;9.40;2.03;;;13.70;99.90;;;;;;5076164;28;20323;-71
2022/10/19 12:49:54;;;;;;;9.47;1.93;;;13.70;99.90;;;;;;5075310;28;20775;-71
2022/10/19 12:52:43;;;;;;;8.97;1.60;;;13.70;99.90;;;;;;5075554;28;20275;-72
2022/10/19 12:55:33;;;;;;;9.37;1.60;;;13.80;99.90;;;;;;5075289;28;20298;-73
2022/10/19 12:58:21;;;;;;;10.27;2.20;;;13.70;99.90;;;;;;5058142;28;20306;-73
2022/10/19 13:01:03;;;;;;;9.17;2.00;;;13.70;99.90;;;;;;5076006;28;20295;-71
2022/10/19 13:03:40;;;;;;;8.53;1.53;;;13.70;99.90;;;;;;5075378;28;20274;-71
2022/10/19 13:06:12;;;;;;;10.73;1.90;;;13.60;99.90;;;;;;5075347;28;20278;-71
2022/10/19 13:09:03;;;;;;;9.63;2.43;;;13.60;99.90;;;;;;5058359;28;20361;-71
2022/10/19 13:11:29;;;;;;;11.77;1.90;;;13.50;99.90;;;;;;5075186;28;20738;-71
2022/10/19 13:14:01;;;;;;;10.80;1.60;;;13.50;99.90;;;;;;5057522;28;20405;-71
2022/10/19 13:16:35;;;;;;;10.10;2.20;;;13.50;99.90;;;;;;5075151;28;20274;-71
2022/10/19 13:19:13;;;;;;;9.25;2.10;;;13.50;99.90;;;;;;5075054;28;20690;-71
2022/10/19 13:21:55;;;;;;;9.53;2.27;;;13.50;99.90;;;;;;5075191;28;20045;-71
2022/10/19 13:24:23;;;;;;;11.20;2.33;;;13.50;99.90;;;;;;5075378;28;20279;-71
2022/10/19 13:27:01;;;;;;;8.57;1.53;;;13.40;99.90;;;;;;5074979;28;20287;-71
2022/10/19 13:29:38;;;;;;;14.03;2.43;;;13.40;99.90;;;;;;5075655;28;20405;-71
2022/10/19 13:32:36;;;;;;;11.43;2.07;;;13.40;99.90;;;;;;5075455;28;20275;-71
2022/10/19 13:35:25;;;;;;;10.77;1.83;;;13.40;99.90;;;;;;5019732;28;20835;-71
2022/10/19 13:38:14;;;;;;;12.43;2.27;;;13.30;99.90;;;;;;5074247;28;20428;-71
2022/10/19 13:40:46;;;;;;;9.33;2.17;;;13.30;99.90;;;;;;5075414;28;20299;-71
2022/10/19 13:43:39;;;;;;;9.50;1.70;;;13.40;99.90;;;;;;5074697;28;20632;-71
2022/10/19 13:46:21;;;;;;;10.13;1.67;;;13.30;99.90;;;;;;5074907;28;20289;-71
2022/10/19 13:49:02;;;;;;;10.43;1.97;;;13.30;99.90;;;;;;5057339;28;20332;-71
2022/10/19 13:51:40;;;;;;;8.97;2.00;;;13.20;99.90;;;;;;5056912;28;20295;-71
2022/10/19 13:54:32;;;;;;;8.87;1.67;;;13.20;99.90;;;;;;5075393;28;20354;-71
2022/10/19 13:57:21;;;;;;;9.47;1.93;;;13.20;99.90;;;;;;5057640;28;20619;-71
2022/10/19 14:00:12;;;;;;;11.77;1.73;;;13.20;99.90;;;;;;5074845;28;20615;-71
2022/10/19 14:02:40;;;;;;;6.77;1.93;;;13.20;99.90;;;;;;5057409;28;20291;-71
2022/10/19 14:05:33;;;;;;;8.07;1.80;;;13.20;99.90;;;;;;5056626;28;20283;-71
2022/10/19 14:08:10;;;;;;;7.80;1.70;;;13.20;99.90;;;;;;5056892;28;20635;-71
2022/10/19 14:10:36;;;;;;;8.13;1.70;;;13.20;99.90;;;;;;5056787;28;20298;-71
2022/10/19 14:13:05;;;;;;;6.07;1.83;;;13.20;99.90;;;;;;5074006;28;20281;-71